createdAt,value
2023-04-19T00:00:40.184Z,16.46
2023-04-19T00:01:44.317Z,16.50
2023-04-19T00:02:50.040Z,16.51
2023-04-19T00:03:54.170Z,16.54
2023-04-19T00:04:58.082Z,16.51
2023-04-19T00:06:01.760Z,16.51
2023-04-19T00:07:05.625Z,16.51
2023-04-19T00:08:09.562Z,16.52
2023-04-19T00:09:13.442Z,16.53
2023-04-19T00:10:17.172Z,16.51
2023-04-19T00:11:21.024Z,16.48
2023-04-19T00:12:24.607Z,16.46
2023-04-19T00:13:27.798Z,16.44
2023-04-19T00:14:31.646Z,16.43
2023-04-19T00:15:36.153Z,16.42
2023-04-19T00:16:39.670Z,16.38
2023-04-19T00:17:43.721Z,16.34
2023-04-19T00:18:47.718Z,16.32
2023-04-19T00:19:51.579Z,16.30
2023-04-19T00:20:54.715Z,16.28
2023-04-19T00:21:58.532Z,16.30
2023-04-19T00:23:02.186Z,16.30
2023-04-19T00:24:06.631Z,16.28
2023-04-19T00:25:09.871Z,16.27
2023-04-19T00:26:16.307Z,16.23
2023-04-19T00:27:25.801Z,16.20
2023-04-19T00:28:29.641Z,16.19
2023-04-19T00:29:33.844Z,16.15
2023-04-19T00:30:37.494Z,16.15
2023-04-19T00:31:41.557Z,16.13
2023-04-19T00:32:45.037Z,16.14
2023-04-19T00:33:48.172Z,16.11
2023-04-19T00:34:51.552Z,16.10
2023-04-19T00:35:54.967Z,16.10
2023-04-19T00:36:58.716Z,16.07
2023-04-19T00:38:02.456Z,16.02
2023-04-19T00:39:05.890Z,16.02
2023-04-19T00:40:09.866Z,15.99
2023-04-19T00:41:14.127Z,15.92
2023-04-19T00:42:18.224Z,15.95
2023-04-19T00:43:23.763Z,15.93
2023-04-19T00:44:27.225Z,15.89
2023-04-19T00:45:31.005Z,15.88
2023-04-19T00:46:34.748Z,15.85
2023-04-19T00:47:38.038Z,15.85
2023-04-19T00:48:42.008Z,15.85
2023-04-19T00:49:46.942Z,15.84
2023-04-19T00:50:50.730Z,15.80
2023-04-19T00:51:54.793Z,15.79
2023-04-19T00:53:01.175Z,15.78
2023-04-19T00:54:05.221Z,15.75
2023-04-19T00:55:08.957Z,15.67
2023-04-19T00:56:12.166Z,15.66
2023-04-19T00:57:17.694Z,15.63
2023-04-19T00:58:21.439Z,15.64
2023-04-19T00:59:24.736Z,15.62
2023-04-19T01:00:28.388Z,15.62
2023-04-19T01:01:32.329Z,15.66
2023-04-19T01:02:36.914Z,15.70
2023-04-19T01:03:40.796Z,15.66
2023-04-19T01:04:45.370Z,15.66
2023-04-19T01:05:50.562Z,15.64
2023-04-19T01:06:54.105Z,15.60
2023-04-19T01:07:58.296Z,15.57
2023-04-19T01:09:02.717Z,15.53
2023-04-19T01:10:06.722Z,15.58
2023-04-19T01:11:10.012Z,15.63
2023-04-19T01:12:13.717Z,15.64
2023-04-19T01:13:19.282Z,15.64
2023-04-19T01:14:23.210Z,15.61
2023-04-19T01:15:27.195Z,15.63
2023-04-19T01:16:31.104Z,15.58
2023-04-19T01:17:35.188Z,15.63
2023-04-19T01:18:41.810Z,15.63
2023-04-19T01:19:45.290Z,15.63
2023-04-19T01:20:48.656Z,15.65
2023-04-19T01:21:53.618Z,15.65
2023-04-19T01:22:57.041Z,15.68
2023-04-19T01:24:00.592Z,15.67
2023-04-19T01:25:05.145Z,15.67
2023-04-19T01:26:08.366Z,15.67
2023-04-19T01:27:12.197Z,15.66
2023-04-19T01:28:15.496Z,15.64
2023-04-19T01:29:19.852Z,15.70
2023-04-19T01:30:23.875Z,15.72
2023-04-19T01:31:27.937Z,15.67
2023-04-19T01:32:31.845Z,15.66
2023-04-19T01:33:35.505Z,15.65
2023-04-19T01:34:39.006Z,15.66
2023-04-19T01:35:42.570Z,15.63
2023-04-19T01:36:46.805Z,15.65
2023-04-19T01:37:51.732Z,15.65
2023-04-19T01:38:55.343Z,15.63
2023-04-19T01:39:58.662Z,15.60
2023-04-19T01:41:04.099Z,15.57
2023-04-19T01:42:07.959Z,15.52
2023-04-19T01:43:17.729Z,15.50
2023-04-19T01:44:20.895Z,15.52
2023-04-19T01:45:24.113Z,15.54
2023-04-19T01:46:27.861Z,15.54
2023-04-19T01:47:31.615Z,15.50
2023-04-19T01:48:35.335Z,15.48
2023-04-19T01:49:39.300Z,15.52
2023-04-19T01:50:42.593Z,15.55
2023-04-19T01:51:47.865Z,15.55
2023-04-19T01:52:51.463Z,15.54
2023-04-19T01:53:55.578Z,15.51
2023-04-19T01:54:59.856Z,15.49
2023-04-19T01:56:03.304Z,15.56
2023-04-19T01:57:07.072Z,15.53
2023-04-19T01:58:11.058Z,15.56
2023-04-19T01:59:15.367Z,15.60
2023-04-19T02:00:18.824Z,15.58
2023-04-19T02:01:24.299Z,15.58
2023-04-19T02:02:28.215Z,15.58
2023-04-19T02:03:32.435Z,15.63
2023-04-19T02:04:36.478Z,15.61
2023-04-19T02:05:42.608Z,15.58
2023-04-19T02:06:45.993Z,15.61
2023-04-19T02:07:49.784Z,15.57
2023-04-19T02:08:53.600Z,15.56
2023-04-19T02:09:56.901Z,15.49
2023-04-19T02:11:00.653Z,15.48
2023-04-19T02:12:05.929Z,15.50
2023-04-19T02:13:09.748Z,15.44
2023-04-19T02:14:13.378Z,15.41
2023-04-19T02:15:17.202Z,15.39
2023-04-19T02:16:21.028Z,15.41
2023-04-19T02:17:26.984Z,15.44
2023-04-19T02:18:31.513Z,15.47
2023-04-19T02:19:35.161Z,15.51
2023-04-19T02:20:38.773Z,15.52
2023-04-19T02:21:42.340Z,15.53
2023-04-19T02:22:46.030Z,15.49
2023-04-19T02:23:49.568Z,15.42
2023-04-19T02:24:53.674Z,15.34
2023-04-19T02:26:04.262Z,15.31
2023-04-19T02:27:08.005Z,15.25
2023-04-19T02:28:11.924Z,15.19
2023-04-19T02:29:17.542Z,15.14
2023-04-19T02:30:21.354Z,15.10
2023-04-19T02:31:24.750Z,15.04
2023-04-19T02:32:28.814Z,15.00
2023-04-19T02:33:32.415Z,14.99
2023-04-19T02:34:36.975Z,14.96
2023-04-19T02:35:40.273Z,15.01
2023-04-19T02:36:43.674Z,15.05
2023-04-19T02:37:47.806Z,15.08
2023-04-19T02:38:51.464Z,15.15
2023-04-19T02:39:56.972Z,15.16
2023-04-19T02:41:02.253Z,15.21
2023-04-19T02:42:06.518Z,15.25
2023-04-19T02:43:10.171Z,15.33
2023-04-19T02:44:13.674Z,15.38
2023-04-19T02:45:19.332Z,15.45
2023-04-19T02:46:22.879Z,15.51
2023-04-19T02:47:26.459Z,15.61
2023-04-19T02:48:29.654Z,15.66
2023-04-19T02:49:36.630Z,15.70
2023-04-19T02:50:41.364Z,15.70
2023-04-19T02:51:45.254Z,15.70
2023-04-19T02:52:49.808Z,15.71
2023-04-19T02:53:54.543Z,15.74
2023-04-19T02:54:58.383Z,15.78
2023-04-19T02:56:02.676Z,15.85
2023-04-19T02:57:05.882Z,15.93
2023-04-19T02:58:09.826Z,15.96
2023-04-19T02:59:23.652Z,15.99
2023-04-19T03:00:27.489Z,16.00
2023-04-19T03:01:40.523Z,16.05
2023-04-19T03:02:45.596Z,16.08
2023-04-19T03:03:49.759Z,16.06
2023-04-19T03:04:56.028Z,16.07
2023-04-19T03:05:59.553Z,16.07
2023-04-19T03:07:04.783Z,16.06
2023-04-19T03:08:07.991Z,16.07
2023-04-19T03:09:12.391Z,16.09
2023-04-19T03:10:16.719Z,16.09
2023-04-19T03:11:20.717Z,16.07
2023-04-19T03:12:24.796Z,16.09
2023-04-19T03:13:28.955Z,16.08
2023-04-19T03:14:34.796Z,16.07
2023-04-19T03:15:38.426Z,16.04
2023-04-19T03:16:42.537Z,16.04
2023-04-19T03:17:46.857Z,16.03
2023-04-19T03:18:51.228Z,16.02
2023-04-19T03:19:59.606Z,15.95
2023-04-19T03:21:04.382Z,15.92
2023-04-19T03:22:16.272Z,15.89
2023-04-19T03:23:19.916Z,15.86
2023-04-19T03:24:31.093Z,15.85
2023-04-19T03:25:38.764Z,15.85
2023-04-19T03:27:15.715Z,15.89
2023-04-19T03:28:22.800Z,15.81
2023-04-19T03:29:48.789Z,15.72
2023-04-19T03:30:52.542Z,15.66
2023-04-19T03:31:55.854Z,15.62
2023-04-19T03:33:01.141Z,15.62
2023-04-19T03:34:04.993Z,15.58
2023-04-19T03:35:15.135Z,15.58
2023-04-19T03:36:18.694Z,15.58
2023-04-19T03:37:23.755Z,15.60
2023-04-19T03:38:27.460Z,15.63
2023-04-19T03:39:31.938Z,15.67
2023-04-19T03:40:39.332Z,15.64
2023-04-19T03:41:45.013Z,15.65
2023-04-19T03:43:06.367Z,15.63
2023-04-19T03:44:11.431Z,15.60
2023-04-19T03:45:18.320Z,15.55
2023-04-19T03:46:24.631Z,15.53
2023-04-19T03:47:28.566Z,15.50
2023-04-19T03:48:36.568Z,15.49
2023-04-19T03:49:40.210Z,15.46
2023-04-19T03:50:43.751Z,15.46
2023-04-19T03:51:50.679Z,15.48
2023-04-19T03:52:55.214Z,15.50
2023-04-19T03:53:58.912Z,15.51
2023-04-19T03:55:04.175Z,15.50
2023-04-19T03:56:12.644Z,15.49
2023-04-19T03:57:18.627Z,15.47
2023-04-19T03:58:23.193Z,15.45
2023-04-19T03:59:34.491Z,15.38
2023-04-19T04:00:38.988Z,15.35
2023-04-19T04:01:42.942Z,15.27
2023-04-19T04:02:46.676Z,15.22
2023-04-19T04:03:50.403Z,15.19
2023-04-19T04:04:55.996Z,15.20
2023-04-19T04:06:00.336Z,15.18
2023-04-19T04:07:04.287Z,14.98
2023-04-19T04:08:08.613Z,14.98
2023-04-19T04:09:12.468Z,14.79
2023-04-19T04:10:16.004Z,14.79
2023-04-19T04:11:20.491Z,14.81
2023-04-19T04:12:25.559Z,14.81
2023-04-19T04:13:31.349Z,14.83
2023-04-19T04:14:42.934Z,14.83
2023-04-19T04:15:47.890Z,14.82
2023-04-19T04:16:52.661Z,14.84
2023-04-19T04:17:57.762Z,14.78
2023-04-19T04:19:02.878Z,14.71
2023-04-19T04:20:10.783Z,14.66
2023-04-19T04:21:14.640Z,14.64
2023-04-19T04:22:22.267Z,14.59
2023-04-19T04:23:26.470Z,14.58
2023-04-19T04:24:31.202Z,14.59
2023-04-19T04:26:05.544Z,14.63
2023-04-19T04:27:28.948Z,14.63
2023-04-19T04:28:32.954Z,14.59
2023-04-19T04:29:40.690Z,14.58
2023-04-19T04:30:45.534Z,14.55
2023-04-19T04:31:50.167Z,14.55
2023-04-19T04:32:59.062Z,14.52
2023-04-19T04:34:04.440Z,14.56
2023-04-19T04:35:12.028Z,14.65
2023-04-19T04:36:21.637Z,14.69
2023-04-19T04:37:27.091Z,14.73
2023-04-19T04:38:30.947Z,14.79
2023-04-19T04:39:40.167Z,14.85
2023-04-19T04:40:50.283Z,14.87
2023-04-19T04:41:54.151Z,14.92
2023-04-19T04:42:58.493Z,14.93
2023-04-19T04:44:12.482Z,14.95
2023-04-19T04:45:27.283Z,14.95
2023-04-19T04:46:31.368Z,14.94
2023-04-19T04:47:35.556Z,14.98
2023-04-19T04:48:42.091Z,14.98
2023-04-19T04:49:46.165Z,15.00
2023-04-19T04:50:50.087Z,15.02
2023-04-19T04:51:54.598Z,15.02
2023-04-19T04:52:58.578Z,15.03
2023-04-19T04:54:06.373Z,15.02
2023-04-19T04:55:12.056Z,15.05
2023-04-19T04:56:20.447Z,15.05
2023-04-19T04:57:23.790Z,15.03
2023-04-19T04:58:27.456Z,15.00
2023-04-19T04:59:36.491Z,14.98
2023-04-19T05:00:40.506Z,14.98
2023-04-19T05:01:46.764Z,14.98
2023-04-19T05:02:51.093Z,14.96
2023-04-19T05:03:54.582Z,14.96
2023-04-19T05:04:58.421Z,14.96
2023-04-19T05:06:03.303Z,14.96
2023-04-19T05:07:07.755Z,14.97
2023-04-19T05:08:11.408Z,14.94
2023-04-19T05:09:15.522Z,14.99
2023-04-19T05:10:19.450Z,15.00
2023-04-19T05:11:24.041Z,15.02
2023-04-19T05:12:28.571Z,15.04
2023-04-19T05:13:32.838Z,15.02
2023-04-19T05:14:36.616Z,14.99
2023-04-19T05:15:41.041Z,14.97
2023-04-19T05:16:45.546Z,14.97
2023-04-19T05:17:50.460Z,14.98
2023-04-19T05:18:57.218Z,14.99
2023-04-19T05:20:02.318Z,15.00
2023-04-19T05:21:07.454Z,14.98
2023-04-19T05:22:11.175Z,15.02
2023-04-19T05:23:15.806Z,15.02
2023-04-19T05:24:19.882Z,15.01
2023-04-19T05:25:23.492Z,14.99
2023-04-19T05:26:27.047Z,15.00
2023-04-19T05:27:31.658Z,14.99
2023-04-19T05:28:35.321Z,15.02
2023-04-19T05:29:44.340Z,15.02
2023-04-19T05:30:48.148Z,15.03
2023-04-19T05:31:52.443Z,15.05
2023-04-19T05:33:03.209Z,15.04
2023-04-19T05:34:08.026Z,15.06
2023-04-19T05:35:12.484Z,15.05
2023-04-19T05:36:16.077Z,15.06
2023-04-19T05:37:20.200Z,15.03
2023-04-19T05:38:23.306Z,15.06
2023-04-19T05:39:27.454Z,15.06
2023-04-19T05:40:31.613Z,15.09
2023-04-19T05:41:35.175Z,15.11
2023-04-19T05:42:39.653Z,15.13
2023-04-19T05:43:43.328Z,15.13
2023-04-19T05:44:47.142Z,15.17
2023-04-19T05:45:50.591Z,15.18
2023-04-19T05:46:54.305Z,15.18
2023-04-19T05:48:18.065Z,15.19
2023-04-19T05:50:00.119Z,15.19
2023-04-19T05:51:18.028Z,15.22
2023-04-19T05:52:39.883Z,15.22
2023-04-19T05:53:44.696Z,15.22
2023-04-19T05:54:48.347Z,15.29
2023-04-19T05:55:53.136Z,15.27
2023-04-19T05:56:56.794Z,15.30
2023-04-19T05:58:00.006Z,15.31
2023-04-19T05:59:04.810Z,15.34
2023-04-19T06:00:10.368Z,15.35
2023-04-19T06:01:32.638Z,15.33
2023-04-19T06:02:37.249Z,15.37
2023-04-19T06:03:40.711Z,15.37
2023-04-19T06:04:44.534Z,15.39
2023-04-19T06:05:48.824Z,15.36
2023-04-19T06:06:52.933Z,15.36
2023-04-19T06:08:02.808Z,15.37
2023-04-19T06:09:08.145Z,15.39
2023-04-19T06:10:11.719Z,15.44
2023-04-19T06:11:23.330Z,15.45
2023-04-19T06:12:33.404Z,15.46
2023-04-19T06:13:37.128Z,15.49
2023-04-19T06:14:40.466Z,15.50
2023-04-19T06:15:44.534Z,15.53
2023-04-19T06:16:48.715Z,15.57
2023-04-19T06:17:52.576Z,15.58
2023-04-19T06:18:56.567Z,15.62
2023-04-19T06:20:00.435Z,15.66
2023-04-19T06:21:03.914Z,15.63
2023-04-19T06:22:07.740Z,15.63
2023-04-19T06:23:14.070Z,15.65
2023-04-19T06:24:17.821Z,15.67
2023-04-19T06:25:21.708Z,15.75
2023-04-19T06:26:25.618Z,15.76
2023-04-19T06:27:29.435Z,15.75
2023-04-19T06:28:33.369Z,15.79
2023-04-19T06:29:37.369Z,15.82
2023-04-19T06:30:40.763Z,15.85
2023-04-19T06:31:44.151Z,15.88
2023-04-19T06:32:47.655Z,15.92
2023-04-19T06:33:51.416Z,15.97
2023-04-19T06:34:54.923Z,15.96
2023-04-19T06:35:58.072Z,15.99
2023-04-19T06:37:01.210Z,15.99
2023-04-19T06:38:04.894Z,16.03
2023-04-19T06:39:08.666Z,16.06
2023-04-19T06:40:12.308Z,16.08
2023-04-19T06:41:15.575Z,15.94
2023-04-19T06:42:20.753Z,15.86
2023-04-19T06:43:24.988Z,15.79
2023-04-19T06:44:28.553Z,15.86
2023-04-19T06:45:32.558Z,15.90
2023-04-19T06:46:36.265Z,15.94
2023-04-19T06:47:40.217Z,16.01
2023-04-19T06:48:43.927Z,16.08
2023-04-19T06:49:47.124Z,16.13
2023-04-19T06:50:50.789Z,16.22
2023-04-19T06:51:55.030Z,16.31
2023-04-19T06:52:58.637Z,16.39
2023-04-19T06:54:02.040Z,16.38
2023-04-19T06:55:07.309Z,16.44
2023-04-19T06:56:12.143Z,16.46
2023-04-19T06:57:16.594Z,16.51
2023-04-19T06:58:20.214Z,16.56
2023-04-19T06:59:23.706Z,16.64
2023-04-19T07:00:27.513Z,16.70
2023-04-19T07:01:31.266Z,16.78
2023-04-19T07:02:35.332Z,16.83
2023-04-19T07:03:39.504Z,16.88
2023-04-19T07:04:43.408Z,16.92
2023-04-19T07:05:48.155Z,16.99
2023-04-19T07:06:51.586Z,16.96
2023-04-19T07:07:55.458Z,16.93
2023-04-19T07:08:59.028Z,16.97
2023-04-19T07:10:02.614Z,16.97
2023-04-19T07:11:07.077Z,17.03
2023-04-19T07:12:11.113Z,17.06
2023-04-19T07:13:14.921Z,17.10
2023-04-19T07:14:21.694Z,17.09
2023-04-19T07:15:24.981Z,17.11
2023-04-19T07:16:29.187Z,17.13
2023-04-19T07:17:33.092Z,17.12
2023-04-19T07:18:36.761Z,17.17
2023-04-19T07:19:40.249Z,17.22
2023-04-19T07:20:45.716Z,17.24
2023-04-19T07:21:49.861Z,17.32
2023-04-19T07:22:53.792Z,17.34
2023-04-19T07:23:57.749Z,17.34
2023-04-19T07:25:01.661Z,17.43
2023-04-19T07:26:05.861Z,17.38
2023-04-19T07:27:09.991Z,17.36
2023-04-19T07:28:14.013Z,17.37
2023-04-19T07:29:17.576Z,17.44
2023-04-19T07:30:21.183Z,17.51
2023-04-19T07:31:25.523Z,17.62
2023-04-19T07:32:29.426Z,17.57
2023-04-19T07:33:33.314Z,17.68
2023-04-19T07:34:38.900Z,17.76
2023-04-19T07:35:42.410Z,17.79
2023-04-19T07:36:46.412Z,17.86
2023-04-19T07:37:49.766Z,17.83
2023-04-19T07:38:53.620Z,17.94
2023-04-19T07:39:57.481Z,18.04
2023-04-19T07:41:01.636Z,18.04
2023-04-19T07:42:05.094Z,18.11
2023-04-19T07:43:09.270Z,18.11
2023-04-19T07:44:13.905Z,18.20
2023-04-19T07:45:17.472Z,18.15
2023-04-19T07:46:21.018Z,18.21
2023-04-19T07:47:24.617Z,18.24
2023-04-19T07:48:28.203Z,18.38
2023-04-19T07:49:34.690Z,18.52
2023-04-19T07:50:38.938Z,18.57
2023-04-19T07:51:42.868Z,18.77
2023-04-19T07:52:46.530Z,18.92
2023-04-19T07:53:50.887Z,19.15
2023-04-19T07:54:54.282Z,19.47
2023-04-19T07:55:58.203Z,19.62
2023-04-19T07:57:03.164Z,19.94
2023-04-19T07:58:07.336Z,20.22
2023-04-19T07:59:11.216Z,20.29
2023-04-19T08:00:15.957Z,20.64
2023-04-19T08:01:19.738Z,20.92
2023-04-19T08:02:23.118Z,21.23
2023-04-19T08:03:26.959Z,21.38
2023-04-19T08:04:31.174Z,21.66
2023-04-19T08:05:35.483Z,21.87
2023-04-19T08:06:40.092Z,22.03
2023-04-19T08:07:44.099Z,22.15
2023-04-19T08:08:48.625Z,22.18
2023-04-19T08:09:53.824Z,22.24
2023-04-19T08:10:57.328Z,22.28
2023-04-19T08:12:04.341Z,23.04
2023-04-19T08:13:08.309Z,23.95
2023-04-19T08:14:28.485Z,25.02
2023-04-19T08:17:19.139Z,27.80
2023-04-19T08:18:06.340Z,29.42
2023-04-19T08:19:10.080Z,30.37
2023-04-19T08:20:14.012Z,31.29
2023-04-19T08:21:17.677Z,32.19
2023-04-19T08:22:22.146Z,32.96
2023-04-19T08:23:29.724Z,33.61
2023-04-19T08:24:41.628Z,33.87
2023-04-19T08:25:45.633Z,33.96
2023-04-19T08:26:54.762Z,34.41
2023-04-19T08:27:58.929Z,34.95
2023-04-19T08:29:02.847Z,35.29
2023-04-19T08:30:08.537Z,35.74
2023-04-19T08:31:12.312Z,36.08
2023-04-19T08:32:16.623Z,36.38
2023-04-19T08:33:19.994Z,36.74
2023-04-19T08:34:23.755Z,37.11
2023-04-19T08:35:28.174Z,37.32
2023-04-19T08:36:41.065Z,37.51
2023-04-19T08:37:49.374Z,37.38
2023-04-19T08:39:04.190Z,37.83
2023-04-19T08:40:12.438Z,38.29
2023-04-19T08:41:16.692Z,38.64
2023-04-19T08:42:33.198Z,39.13
2023-04-19T08:43:40.557Z,39.42
2023-04-19T08:45:05.605Z,39.63
2023-04-19T08:46:09.552Z,39.79
2023-04-19T08:47:20.220Z,39.98
2023-04-19T08:48:31.667Z,40.24
2023-04-19T08:49:40.749Z,40.51
2023-04-19T08:51:03.993Z,40.81
2023-04-19T08:52:09.665Z,40.91
2023-04-19T08:53:23.982Z,41.07
2023-04-19T08:54:33.190Z,41.27
2023-04-19T08:55:38.259Z,41.32
2023-04-19T08:56:43.723Z,41.53
2023-04-19T08:57:47.463Z,41.74
2023-04-19T08:59:01.043Z,41.63
2023-04-19T09:00:15.549Z,41.53
2023-04-19T09:01:31.152Z,41.66
2023-04-19T09:02:48.550Z,41.29
2023-04-19T09:04:01.323Z,41.60
2023-04-19T09:05:10.977Z,41.83
2023-04-19T09:06:14.688Z,40.96
2023-04-19T09:07:27.884Z,41.43
2023-04-19T09:08:31.904Z,41.76
2023-04-19T09:09:45.721Z,42.10
2023-04-19T09:11:02.722Z,42.39
2023-04-19T09:12:21.248Z,42.78
2023-04-19T09:13:25.478Z,43.04
2023-04-19T09:14:29.869Z,43.27
2023-04-19T09:15:40.822Z,43.50
2023-04-19T09:16:45.007Z,43.56
2023-04-19T09:17:48.906Z,43.40
2023-04-19T09:19:15.339Z,43.63
2023-04-19T09:20:26.728Z,43.44
2023-04-19T09:21:31.743Z,43.49
2023-04-19T09:22:40.297Z,43.57
2023-04-19T09:23:48.918Z,43.61
2023-04-19T09:26:22.770Z,43.78
2023-04-19T09:27:35.261Z,43.82
2023-04-19T09:28:38.921Z,43.90
2023-04-19T09:29:43.285Z,43.99
2023-04-19T09:31:00.658Z,44.04
2023-04-19T09:32:14.988Z,44.12
2023-04-19T09:33:35.260Z,44.29
2023-04-19T09:34:39.174Z,44.19
2023-04-19T09:35:50.545Z,43.89
2023-04-19T09:37:01.052Z,44.31
2023-04-19T09:38:16.898Z,44.45
2023-04-19T09:39:32.994Z,44.40
2023-04-19T09:40:36.726Z,44.44
2023-04-19T09:41:53.795Z,44.48
2023-04-19T09:44:35.905Z,44.77
2023-04-19T09:45:45.493Z,44.82
2023-04-19T09:46:53.787Z,44.81
2023-04-19T09:48:08.426Z,44.88
2023-04-19T09:49:25.286Z,45.07
2023-04-19T09:51:03.297Z,44.71
2023-04-19T09:52:10.345Z,44.58
2023-04-19T09:53:13.625Z,44.39
2023-04-19T09:54:21.257Z,44.45
2023-04-19T09:55:27.503Z,44.65
2023-04-19T09:56:31.728Z,44.72
2023-04-19T09:57:35.357Z,44.66
2023-04-19T09:58:50.069Z,44.54
2023-04-19T09:59:56.094Z,44.69
2023-04-19T10:01:10.675Z,44.21
2023-04-19T10:02:17.893Z,44.24
2023-04-19T10:03:22.715Z,44.34
2023-04-19T10:04:41.778Z,43.81
2023-04-19T10:05:51.649Z,43.54
2023-04-19T10:07:19.330Z,43.51
2023-04-19T10:08:18.274Z,43.74
2023-04-19T10:09:24.695Z,43.47
2023-04-19T10:11:40.095Z,44.03
2023-04-19T10:12:59.213Z,44.06
2023-04-19T10:14:08.029Z,44.06
2023-04-19T10:15:12.291Z,44.17
2023-04-19T10:16:19.357Z,43.48
2023-04-19T10:17:24.536Z,43.02
2023-04-19T10:18:28.628Z,43.05
2023-04-19T10:19:32.113Z,43.52
2023-04-19T10:20:56.269Z,43.67
2023-04-19T10:22:00.171Z,43.66
2023-04-19T10:23:04.519Z,43.79
2023-04-19T10:24:09.029Z,44.16
2023-04-19T10:25:14.187Z,44.38
2023-04-19T10:26:17.653Z,44.58
2023-04-19T10:27:25.322Z,44.63
2023-04-19T10:28:32.221Z,44.29
2023-04-19T10:30:01.779Z,44.51
2023-04-19T10:31:06.521Z,44.49
2023-04-19T10:32:14.910Z,44.15
2023-04-19T10:33:28.968Z,44.19
2023-04-19T10:34:39.118Z,43.98
2023-04-19T10:35:43.429Z,44.09
2023-04-19T10:36:47.647Z,44.15
2023-04-19T10:38:08.467Z,44.34
2023-04-19T10:39:41.459Z,43.42
2023-04-19T10:40:57.000Z,44.02
2023-04-19T10:42:00.934Z,44.38
2023-04-19T10:43:17.627Z,44.45
2023-04-19T10:44:21.149Z,44.02
2023-04-19T10:45:35.226Z,43.78
2023-04-19T10:46:41.778Z,43.75
2023-04-19T10:47:48.984Z,43.68
2023-04-19T10:49:01.974Z,43.70
2023-04-19T10:50:07.506Z,43.36
2023-04-19T10:51:19.868Z,43.20
2023-04-19T10:52:30.282Z,43.40
2023-04-19T10:54:02.826Z,43.46
2023-04-19T10:55:06.824Z,43.39
2023-04-19T10:56:10.175Z,43.04
2023-04-19T10:57:14.275Z,43.13
2023-04-19T10:58:18.154Z,43.17
2023-04-19T10:59:25.382Z,43.39
2023-04-19T11:00:32.682Z,43.38
2023-04-19T11:01:46.315Z,42.97
2023-04-19T11:02:50.490Z,42.96
2023-04-19T11:03:54.456Z,43.06
2023-04-19T11:04:58.401Z,43.06
2023-04-19T11:06:20.209Z,41.48
2023-04-19T11:07:25.547Z,41.33
2023-04-19T11:08:29.401Z,41.18
2023-04-19T11:09:37.391Z,41.11
2023-04-19T11:10:41.084Z,40.96
2023-04-19T11:11:48.638Z,40.81
2023-04-19T11:12:52.489Z,40.70
2023-04-19T11:13:59.369Z,41.09
2023-04-19T11:15:03.889Z,41.04
2023-04-19T11:16:11.570Z,40.26
2023-04-19T11:17:28.605Z,39.98
2023-04-19T11:18:32.257Z,40.24
2023-04-19T11:19:35.931Z,40.48
2023-04-19T11:20:39.714Z,40.37
2023-04-19T11:21:43.372Z,40.61
2023-04-19T11:22:47.641Z,40.80
2023-04-19T11:24:09.168Z,39.92
2023-04-19T11:25:14.282Z,39.72
2023-04-19T11:26:18.807Z,39.40
2023-04-19T11:27:22.482Z,39.46
2023-04-19T11:28:26.323Z,39.19
2023-04-19T11:29:29.746Z,39.12
2023-04-19T11:30:33.385Z,39.14
2023-04-19T11:31:37.371Z,38.38
2023-04-19T11:32:48.397Z,38.88
2023-04-19T11:33:52.333Z,39.10
2023-04-19T11:34:56.790Z,39.20
2023-04-19T11:36:01.118Z,39.21
2023-04-19T11:37:04.871Z,39.28
2023-04-19T11:38:09.067Z,38.60
2023-04-19T11:39:12.476Z,38.31
2023-04-19T11:40:17.196Z,37.79
2023-04-19T11:41:20.995Z,37.49
2023-04-19T11:42:24.216Z,36.84
2023-04-19T11:43:36.379Z,37.40
2023-04-19T11:44:39.781Z,37.37
2023-04-19T11:45:43.271Z,36.99
2023-04-19T11:47:07.216Z,37.42
2023-04-19T11:48:17.341Z,37.16
2023-04-19T11:49:28.466Z,36.18
2023-04-19T11:50:44.667Z,36.23
2023-04-19T11:51:48.244Z,36.14
2023-04-19T11:52:51.901Z,35.66
2023-04-19T11:53:56.219Z,36.01
2023-04-19T11:55:00.163Z,36.16
2023-04-19T11:56:07.728Z,36.08
2023-04-19T11:57:11.192Z,36.53
2023-04-19T11:58:41.823Z,35.75
2023-04-19T12:00:15.590Z,36.00
2023-04-19T12:01:22.911Z,35.93
2023-04-19T12:02:26.588Z,36.07
2023-04-19T12:03:30.387Z,36.15
2023-04-19T12:04:35.245Z,35.99
2023-04-19T12:05:39.240Z,35.62
2023-04-19T12:06:43.192Z,35.79
2023-04-19T12:08:10.553Z,35.36
2023-04-19T12:09:14.297Z,35.90
2023-04-19T12:10:17.935Z,35.83
2023-04-19T12:11:27.344Z,36.26
2023-04-19T12:12:33.691Z,35.89
2023-04-19T12:13:37.173Z,36.30
2023-04-19T12:14:40.377Z,36.50
2023-04-19T12:15:47.762Z,35.53
2023-04-19T12:17:10.438Z,35.64
2023-04-19T12:18:13.763Z,35.79
2023-04-19T12:19:20.898Z,35.92
2023-04-19T12:20:38.135Z,36.06
2023-04-19T12:21:42.195Z,36.26
2023-04-19T12:22:45.864Z,35.65
2023-04-19T12:23:49.555Z,35.70
2023-04-19T12:24:54.093Z,36.03
2023-04-19T12:25:57.864Z,36.18
2023-04-19T12:27:02.206Z,35.85
2023-04-19T12:28:07.501Z,35.23
2023-04-19T12:29:11.566Z,35.17
2023-04-19T12:30:15.920Z,35.24
2023-04-19T12:31:21.375Z,35.17
2023-04-19T12:32:25.281Z,34.53
2023-04-19T12:33:29.907Z,34.24
2023-04-19T12:34:33.961Z,33.98
2023-04-19T12:35:39.098Z,33.95
2023-04-19T12:36:42.733Z,33.99
2023-04-19T12:37:46.122Z,33.91
2023-04-19T12:38:50.052Z,33.69
2023-04-19T12:39:55.982Z,33.27
2023-04-19T12:41:00.622Z,33.14
2023-04-19T12:42:04.437Z,33.10
2023-04-19T12:43:08.991Z,32.99
2023-04-19T12:44:12.629Z,32.67
2023-04-19T12:45:16.564Z,32.43
2023-04-19T12:46:21.273Z,32.19
2023-04-19T12:47:25.335Z,31.69
2023-04-19T12:48:29.666Z,31.28
2023-04-19T12:49:33.231Z,30.81
2023-04-19T12:50:36.906Z,30.49
2023-04-19T12:51:40.298Z,30.22
2023-04-19T12:52:45.358Z,30.09
2023-04-19T12:53:50.134Z,29.69
2023-04-19T12:54:53.547Z,29.48
2023-04-19T12:55:57.280Z,29.40
2023-04-19T12:57:02.902Z,29.17
2023-04-19T12:58:07.641Z,29.11
2023-04-19T12:59:12.448Z,29.06
2023-04-19T13:00:17.237Z,28.73
2023-04-19T13:01:21.202Z,27.94
2023-04-19T13:02:24.985Z,28.08
2023-04-19T13:03:33.611Z,28.23
2023-04-19T13:04:37.591Z,28.34
2023-04-19T13:05:41.959Z,28.32
2023-04-19T13:06:46.153Z,28.37
2023-04-19T13:07:49.956Z,28.35
2023-04-19T13:08:54.900Z,28.46
2023-04-19T13:09:58.673Z,28.44
2023-04-19T13:11:02.313Z,28.39
2023-04-19T13:12:08.879Z,27.67
2023-04-19T13:13:12.730Z,27.58
2023-04-19T13:14:16.583Z,27.39
2023-04-19T13:15:20.577Z,27.31
2023-04-19T13:16:24.975Z,27.37
2023-04-19T13:17:28.691Z,27.59
2023-04-19T13:18:32.489Z,27.63
2023-04-19T13:19:36.238Z,27.48
2023-04-19T13:20:40.165Z,27.38
2023-04-19T13:21:44.114Z,27.40
2023-04-19T13:22:47.632Z,27.22
2023-04-19T13:23:51.932Z,27.12
2023-04-19T13:24:55.755Z,27.14
2023-04-19T13:25:59.439Z,27.19
2023-04-19T13:27:02.802Z,27.21
2023-04-19T13:28:06.411Z,27.34
2023-04-19T13:29:10.129Z,27.28
2023-04-19T13:30:14.549Z,27.14
2023-04-19T13:31:18.023Z,27.11
2023-04-19T13:32:21.595Z,27.00
2023-04-19T13:33:25.099Z,26.92
2023-04-19T13:34:28.691Z,26.98
2023-04-19T13:35:32.920Z,26.61
2023-04-19T13:36:36.699Z,26.75
2023-04-19T13:37:40.898Z,26.81
2023-04-19T13:38:44.823Z,26.54
2023-04-19T13:39:48.606Z,26.58
2023-04-19T13:40:52.748Z,26.53
2023-04-19T13:41:56.156Z,26.58
2023-04-19T13:43:00.520Z,26.55
2023-04-19T13:44:04.314Z,26.58
2023-04-19T13:45:08.258Z,26.46
2023-04-19T13:46:11.772Z,26.54
2023-04-19T13:47:15.343Z,26.59
2023-04-19T13:48:19.311Z,26.56
2023-04-19T13:49:23.171Z,26.35
2023-04-19T13:50:26.786Z,26.28
2023-04-19T13:51:42.483Z,26.20
2023-04-19T13:52:53.408Z,26.27
2023-04-19T13:53:57.451Z,26.22
2023-04-19T13:55:00.730Z,26.21
2023-04-19T13:56:04.759Z,26.17
2023-04-19T13:57:08.309Z,26.21
2023-04-19T13:58:12.133Z,26.09
2023-04-19T13:59:16.659Z,25.83
2023-04-19T14:00:20.517Z,25.80
2023-04-19T14:01:24.344Z,25.80
2023-04-19T14:02:28.157Z,25.72
2023-04-19T14:03:32.892Z,25.74
2023-04-19T14:04:36.941Z,25.79
2023-04-19T14:05:41.473Z,25.79
2023-04-19T14:06:44.990Z,25.88
2023-04-19T14:07:49.043Z,25.93
2023-04-19T14:08:52.629Z,25.83
2023-04-19T14:09:56.206Z,25.81
2023-04-19T14:11:00.164Z,25.83
2023-04-19T14:12:05.414Z,25.79
2023-04-19T14:13:08.690Z,25.63
2023-04-19T14:14:12.004Z,25.68
2023-04-19T14:15:15.879Z,25.64
2023-04-19T14:16:19.576Z,25.72